CheckWX is a tool to help pilots better visualize weather data.  It is not intended as a substitute for an official pre-flight weather briefing.

09:29:16 UTC

KDYR METAR
Dyersburg Regional Airport
Dyersburg, Tennessee, USA
Current

33 mins ago

KDYR 200856Z AUTO 05010KT 10SM RA OVC005 04/04 A2993 RMK AO2 LTG DSNT ALQDS TSE15B16E44 SLP152 6//// T00440039 58001 PNO $
Observed
Feb-20 @ 08:56 UTC
Wind
  • 050° at 10 KTS
Visibility
16,093 meters
Flight Rules
IFR
Conditions
Rain
Cloud Levels
  • Overcast at 500' AGL
Temperature
C / 39°F
Dewpoint
C / 39°F
Humidity
100%
Altimeter
29.93" Hg
Pressure
1015.2 hPa
Previous

1 hour ago

KDYR 200822Z AUTO 01015KT 6SM VCTS -RA BR OVC005 04/03 A2993 RMK AO2 LTG DSNT NE-S TSE15B16 CIG 004V011 PRESRR PNO $
Observed
Feb-20 @ 08:22 UTC
Wind
  • 010° at 15 KTS
Visibility
9,656 meters
Flight Rules
IFR
Conditions
Area Thunderstorm, Light Rain, Mist
Cloud Levels
  • Overcast at 500' AGL
Temperature
C / 39°F
Dewpoint
C / 37°F
Humidity
93%
Altimeter
29.93" Hg
Pressure
1013.52 hPa
Previous

1 hour ago

KDYR 200815Z AUTO 03012KT 5SM -RA BR BKN005 OVC010 04/03 A2992 RMK AO2 LTG DSNT ALQDS TSE15 PNO $
Observed
Feb-20 @ 08:15 UTC
Wind
  • 030° at 12 KTS
Visibility
8,047 meters
Flight Rules
IFR
Conditions
Light Rain, Mist
Cloud Levels
  • Broken at 500' AGL
  • Overcast at 1,000' AGL
Temperature
C / 39°F
Dewpoint
C / 37°F
Humidity
93%
Altimeter
29.92" Hg
Pressure
1013.22 hPa